Terminal Aerodrome Forecast
Issued by NWS Cleveland, OH

Home | Current Version | Previous Version | Text Only | Print | Product List | Glossary On
Versions: 1 2 3 4 5 6 7 8 9 10 11 12 13 14 15 16 17 18
000
FTUS41 KCLE 281238 AAA
TAFTOL
TAF AMD
KTOL 281238Z 2813/0112 13006KT 6SM -RA BR SCT025 OVC050
      TEMPO 2813/2815 4SM -RA BR OVC025
     FM281500 15007KT 6SM BR OVC030
     FM281700 17010KT 6SM HZ OVC025
     FM282200 18008KT 5SM HZ OVC012
     FM010200 20012G18KT 3SM -SHRA BR OVC008 WS020/22050KT
     FM010800 20016G26KT 2SM -SHRA BR VCTS OVC006CB WS020/24050KT=

USA.gov is the U.S. government's official web portal to all federal, state and local government web resources and services.